Time,TemperatureF,DewpointF,PressureIn,WindDirection,WindDirectionDegrees,WindSpeedMPH,WindSpeedGustMPH,Humidity,HourlyPrecipIn,Conditions,Clouds,dailyrainin,SoftwareType,DateUTC
2013-05-17 00:00:00,59.5,41.0,29.82,WSW,252,11.0,-999.0,51,-99.99,,,0.00,weatherlink.com 1.10,2013-05-17 07:00:00,
2013-05-17 00:16:00,59.2,41.0,29.82,West,262,4.0,-999.0,51,-99.99,,,0.00,weatherlink.com 1.10,2013-05-17 07:16:00,
2013-05-17 00:31:00,59.0,42.0,29.82,SSW,213,6.0,-999.0,53,-99.99,,,0.00,weatherlink.com 1.10,2013-05-17 07:31:00,
2013-05-17 00:46:00,59.0,43.0,29.82,West,263,14.0,-999.0,55,-99.99,,,0.00,weatherlink.com 1.10,2013-05-17 07:46:00,
2013-05-17 01:01:00,58.9,42.0,29.81,SW,223,4.0,-999.0,53,-99.99,,,0.00,weatherlink.com 1.10,2013-05-17 08:01:00,
2013-05-17 01:16:00,59.3,42.0,29.81,SW,227,8.0,-999.0,53,-99.99,,,0.00,weatherlink.com 1.10,2013-05-17 08:16:00,
2013-05-17 01:31:00,59.3,42.0,29.81,SW,220,5.0,-999.0,53,-99.99,,,0.00,weatherlink.com 1.10,2013-05-17 08:31:00,
2013-05-17 01:46:00,59.3,41.0,29.80,WSW,238,0.0,-999.0,52,-99.99,,,0.00,weatherlink.com 1.10,2013-05-17 08:46:00,
2013-05-17 02:01:00,59.2,40.0,29.81,SSW,205,12.0,-999.0,50,-99.99,,,0.00,weatherlink.com 1.10,2013-05-17 09:01:00,
2013-05-17 02:16:00,59.3,41.0,29.81,SW,225,11.0,-999.0,52,-99.99,,,0.00,weatherlink.com 1.10,2013-05-17 09:16:00,
2013-05-17 02:31:00,58.9,42.0,29.81,WSW,240,2.0,-999.0,54,-99.99,,,0.00,weatherlink.com 1.10,2013-05-17 09:31:00,
2013-05-17 02:46:00,58.4,42.0,29.81,WSW,244,0.0,-999.0,55,-99.99,,,0.00,weatherlink.com 1.10,2013-05-17 09:46:00,
2013-05-17 03:01:00,57.6,42.0,29.81,SSW,207,4.0,-999.0,56,-99.99,,,0.00,weatherlink.com 1.10,2013-05-17 10:01:00,
2013-05-17 03:16:00,58.4,42.0,29.82,SW,234,6.0,-999.0,55,-99.99,,,0.00,weatherlink.com 1.10,2013-05-17 10:16:00,
2013-05-17 03:32:00,58.3,42.0,29.81,SW,215,3.0,-999.0,55,-99.99,,,0.00,weatherlink.com 1.10,2013-05-17 10:32:00,
2013-05-17 03:47:00,58.1,42.0,29.81,SW,217,6.0,-999.0,56,-99.99,,,0.00,weatherlink.com 1.10,2013-05-17 10:47:00,
2013-05-17 04:02:00,58.0,42.0,29.81,WSW,251,10.0,-999.0,55,-99.99,,,0.00,weatherlink.com 1.10,2013-05-17 11:02:00,
2013-05-17 04:17:00,57.8,41.0,29.82,WSW,256,0.0,-999.0,54,-99.99,,,0.00,weatherlink.com 1.10,2013-05-17 11:17:00,
2013-05-17 04:32:00,57.5,42.0,29.82,West,269,11.0,-999.0,57,-99.99,,,0.00,weatherlink.com 1.10,2013-05-17 11:32:00,
2013-05-17 04:47:00,57.6,42.0,29.82,West,267,13.0,-999.0,56,-99.99,,,0.00,weatherlink.com 1.10,2013-05-17 11:47:00,
2013-05-17 05:02:00,57.8,41.0,29.82,West,259,12.0,-999.0,54,-99.99,,,0.00,weatherlink.com 1.10,2013-05-17 12:02:00,
2013-05-17 05:17:00,57.8,42.0,29.84,West,267,11.0,-999.0,55,-99.99,,,0.00,weatherlink.com 1.10,2013-05-17 12:17:00,
2013-05-17 05:32:00,58.0,42.0,29.84,West,265,13.0,-999.0,56,-99.99,,,0.00,weatherlink.com 1.10,2013-05-17 12:32:00,
2013-05-17 05:47:00,57.5,42.0,29.84,WSW,252,12.0,-999.0,57,-99.99,,,0.00,weatherlink.com 1.10,2013-05-17 12:47:00,
2013-05-17 06:02:00,57.0,43.0,29.86,WSW,256,10.0,-999.0,60,-99.99,,,0.00,weatherlink.com 1.10,2013-05-17 13:02:00,
2013-05-17 06:17:00,56.7,44.0,29.87,WSW,239,15.0,-999.0,62,-99.99,,,0.00,weatherlink.com 1.10,2013-05-17 13:17:00,
2013-05-17 06:33:00,56.3,45.0,29.88,WSW,258,12.0,-999.0,65,-99.99,,,0.00,weatherlink.com 1.10,2013-05-17 13:33:00,
2013-05-17 06:48:00,56.5,44.0,29.88,SW,236,8.0,-999.0,63,-99.99,,,0.00,weatherlink.com 1.10,2013-05-17 13:48:00,
2013-05-17 07:03:00,56.6,44.0,29.88,SW,215,9.0,-999.0,63,-99.99,,,0.00,weatherlink.com 1.10,2013-05-17 14:03:00,
2013-05-17 07:18:00,57.5,44.0,29.89,SW,236,16.0,-999.0,60,-99.99,,,0.00,weatherlink.com 1.10,2013-05-17 14:18:00,
2013-05-17 07:33:00,59.0,44.0,29.88,WSW,256,11.0,-999.0,57,-99.99,,,0.00,weatherlink.com 1.10,2013-05-17 14:33:00,
2013-05-17 07:48:00,60.2,43.0,29.88,WSW,245,10.0,-999.0,54,-99.99,,,0.00,weatherlink.com 1.10,2013-05-17 14:48:00,
2013-05-17 08:03:00,60.2,43.0,29.89,WSW,242,10.0,-999.0,53,-99.99,,,0.00,weatherlink.com 1.10,2013-05-17 15:03:00,
2013-05-17 08:18:00,61.5,43.0,29.89,WSW,244,13.0,-999.0,50,-99.99,,,0.00,weatherlink.com 1.10,2013-05-17 15:18:00,
2013-05-17 08:33:00,62.3,42.0,29.88,SW,236,13.0,-999.0,48,-99.99,,,0.00,weatherlink.com 1.10,2013-05-17 15:33:00,
2013-05-17 08:48:00,63.1,42.0,29.88,WSW,250,14.0,-999.0,46,-99.99,,,0.00,weatherlink.com 1.10,2013-05-17 15:48:00,
2013-05-17 09:03:00,63.4,42.0,29.87,SSW,205,7.0,-999.0,45,-99.99,,,0.00,weatherlink.com 1.10,2013-05-17 16:03:00,
2013-05-17 09:19:00,65.8,41.0,29.87,SSW,207,11.0,-999.0,40,-99.99,,,0.00,weatherlink.com 1.10,2013-05-17 16:19:00,
2013-05-17 09:34:00,66.1,40.0,29.87,SSW,209,7.0,-999.0,38,-99.99,,,0.00,weatherlink.com 1.10,2013-05-17 16:34:00,
2013-05-17 09:49:00,67.9,39.0,29.86,South,174,5.0,-999.0,35,-99.99,,,0.00,weatherlink.com 1.10,2013-05-17 16:49:00,
2013-05-17 10:04:00,68.1,39.0,29.86,South,173,1.0,-999.0,35,-99.99,,,0.00,weatherlink.com 1.10,2013-05-17 17:04:00,
2013-05-17 10:19:00,69.8,39.0,29.86,South,178,6.0,-999.0,32,-99.99,,,0.00,weatherlink.com 1.10,2013-05-17 17:19:00,
2013-05-17 10:34:00,69.4,37.0,29.86,South,175,0.0,-999.0,31,-99.99,,,0.00,weatherlink.com 1.10,2013-05-17 17:34:00,
2013-05-17 10:49:00,71.3,37.0,29.86,NW,325,11.0,-999.0,29,-99.99,,,0.00,weatherlink.com 1.10,2013-05-17 17:49:00,
2013-05-17 11:04:00,73.0,38.0,29.86,NW,306,15.0,-999.0,28,-99.99,,,0.00,weatherlink.com 1.10,2013-05-17 18:04:00,
2013-05-17 11:19:00,74.7,38.0,29.86,NW,321,19.0,-999.0,27,-99.99,,,0.00,weatherlink.com 1.10,2013-05-17 18:19:00,
2013-05-17 11:34:00,74.7,38.0,29.86,South,188,4.0,-999.0,26,-99.99,,,0.00,weatherlink.com 1.10,2013-05-17 18:34:00,
2013-05-17 11:50:00,75.3,38.0,29.86,NW,324,6.0,-999.0,26,-99.99,,,0.00,weatherlink.com 1.10,2013-05-17 18:50:00,
2013-05-17 12:05:00,75.6,38.0,29.84,ESE,105,3.0,-999.0,26,-99.99,,,0.00,weatherlink.com 1.10,2013-05-17 19:05:00,
2013-05-17 12:20:00,75.3,37.0,29.84,NNE,24,0.0,-999.0,25,-99.99,,,0.00,weatherlink.com 1.10,2013-05-17 19:20:00,
2013-05-17 12:35:00,76.3,37.0,29.84,ESE,114,0.0,-999.0,24,-99.99,,,0.00,weatherlink.com 1.10,2013-05-17 19:35:00,
2013-05-17 12:50:00,77.2,34.0,29.83,South,182,18.0,-999.0,21,-99.99,,,0.00,weatherlink.com 1.10,2013-05-17 19:50:00,
2013-05-17 13:05:00,76.8,34.0,29.83,SSE,167,4.0,-999.0,21,-99.99,,,0.00,weatherlink.com 1.10,2013-05-17 20:05:00,
2013-05-17 13:20:00,79.4,31.0,29.82,SSW,205,14.0,-999.0,17,-99.99,,,0.00,weatherlink.com 1.10,2013-05-17 20:20:00,
2013-05-17 13:35:00,79.0,31.0,29.82,SW,219,18.0,-999.0,17,-99.99,,,0.00,weatherlink.com 1.10,2013-05-17 20:35:00,
2013-05-17 13:50:00,79.4,31.0,29.82,WSW,242,15.0,-999.0,17,-99.99,,,0.00,weatherlink.com 1.10,2013-05-17 20:50:00,
2013-05-17 14:05:00,79.0,31.0,29.82,WSW,247,11.0,-999.0,17,-99.99,,,0.00,weatherlink.com 1.10,2013-05-17 21:05:00,
2013-05-17 14:20:00,77.9,31.0,29.83,WSW,250,18.0,-999.0,18,-99.99,,,0.00,weatherlink.com 1.10,2013-05-17 21:20:00,
2013-05-17 14:35:00,77.2,30.0,29.83,West,263,19.0,-999.0,18,-99.99,,,0.00,weatherlink.com 1.10,2013-05-17 21:35:00,
2013-05-17 14:51:00,77.9,32.0,29.83,WSW,246,15.0,-999.0,19,-99.99,,,0.00,weatherlink.com 1.10,2013-05-17 21:51:00,
2013-05-17 15:06:00,77.6,32.0,29.83,WSW,248,20.0,-999.0,19,-99.99,,,0.00,weatherlink.com 1.10,2013-05-17 22:06:00,
2013-05-17 15:21:00,77.6,31.0,29.83,West,261,20.0,-999.0,18,-99.99,,,0.00,weatherlink.com 1.10,2013-05-17 22:21:00,
2013-05-17 15:36:00,77.4,32.0,29.83,West,277,25.0,-999.0,19,-99.99,,,0.00,weatherlink.com 1.10,2013-05-17 22:36:00,
2013-05-17 15:51:00,77.6,33.0,29.83,WSW,244,12.0,-999.0,20,-99.99,,,0.00,weatherlink.com 1.10,2013-05-17 22:51:00,
2013-05-17 16:06:00,77.2,34.0,29.83,SSW,213,14.0,-999.0,21,-99.99,,,0.00,weatherlink.com 1.10,2013-05-17 23:06:00,
2013-05-17 16:21:00,76.5,34.0,29.83,WSW,242,13.0,-999.0,21,-99.99,,,0.00,weatherlink.com 1.10,2013-05-17 23:21:00,
2013-05-17 16:36:00,76.5,34.0,29.83,WSW,245,17.0,-999.0,21,-99.99,,,0.00,weatherlink.com 1.10,2013-05-17 23:36:00,
2013-05-17 16:51:00,76.3,34.0,29.84,SW,216,14.0,-999.0,21,-99.99,,,0.00,weatherlink.com 1.10,2013-05-17 23:51:00,
2013-05-17 17:06:00,75.6,34.0,29.84,SW,230,11.0,-999.0,22,-99.99,,,0.00,weatherlink.com 1.10,2013-05-18 00:06:00,
2013-05-17 17:21:00,74.9,34.0,29.85,SW,215,13.0,-999.0,22,-99.99,,,0.00,weatherlink.com 1.10,2013-05-18 00:21:00,
2013-05-17 17:36:00,74.6,34.0,29.85,SW,234,13.0,-999.0,23,-99.99,,,0.00,weatherlink.com 1.10,2013-05-18 00:36:00,
2013-05-17 17:51:00,73.7,35.0,29.86,West,259,9.0,-999.0,24,-99.99,,,0.00,weatherlink.com 1.10,2013-05-18 00:51:00,
2013-05-17 18:07:00,72.8,36.0,29.86,SSW,213,9.0,-999.0,26,-99.99,,,0.00,weatherlink.com 1.10,2013-05-18 01:07:00,
2013-05-17 18:22:00,71.6,36.0,29.85,West,259,16.0,-999.0,27,-99.99,,,0.00,weatherlink.com 1.10,2013-05-18 01:22:00,
2013-05-17 18:37:00,70.9,35.0,29.86,West,262,12.0,-999.0,27,-99.99,,,0.00,weatherlink.com 1.10,2013-05-18 01:37:00,
2013-05-17 18:52:00,69.6,35.0,29.88,SW,223,13.0,-999.0,28,-99.99,,,0.00,weatherlink.com 1.10,2013-05-18 01:52:00,
2013-05-17 19:07:00,69.1,35.0,29.88,WSW,239,3.0,-999.0,28,-99.99,,,0.00,weatherlink.com 1.10,2013-05-18 02:07:00,
2013-05-17 19:22:00,69.1,34.0,29.87,NNW,338,12.0,-999.0,27,-99.99,,,0.00,weatherlink.com 1.10,2013-05-18 02:22:00,
2013-05-17 19:37:00,68.3,33.0,29.88,SSW,213,12.0,-999.0,27,-99.99,,,0.00,weatherlink.com 1.10,2013-05-18 02:37:00,
2013-05-17 19:52:00,67.3,33.0,29.87,WSW,247,7.0,-999.0,28,-99.99,,,0.00,weatherlink.com 1.10,2013-05-18 02:52:00,
2013-05-17 20:07:00,66.9,34.0,29.87,West,263,0.0,-999.0,29,-99.99,,,0.00,weatherlink.com 1.10,2013-05-18 03:07:00,
2013-05-17 20:22:00,66.6,34.0,29.86,East,92,6.0,-999.0,30,-99.99,,,0.00,weatherlink.com 1.10,2013-05-18 03:22:00,
2013-05-17 20:37:00,66.8,32.0,29.86,SE,127,2.0,-999.0,27,-99.99,,,0.00,weatherlink.com 1.10,2013-05-18 03:37:00,
2013-05-17 20:52:00,66.1,31.0,29.86,West,264,3.0,-999.0,27,-99.99,,,0.00,weatherlink.com 1.10,2013-05-18 03:52:00,
2013-05-17 21:07:00,65.5,32.0,29.88,WNW,291,6.0,-999.0,29,-99.99,,,0.00,weatherlink.com 1.10,2013-05-18 04:07:00,
2013-05-17 21:23:00,65.3,30.0,29.87,NE,34,7.0,-999.0,27,-99.99,,,0.00,weatherlink.com 1.10,2013-05-18 04:23:00,
2013-05-17 21:38:00,65.8,31.0,29.87,South,180,10.0,-999.0,27,-99.99,,,0.00,weatherlink.com 1.10,2013-05-18 04:38:00,
2013-05-17 21:53:00,65.6,31.0,29.88,SW,234,6.0,-999.0,28,-99.99,,,0.00,weatherlink.com 1.10,2013-05-18 04:53:00,
2013-05-17 22:08:00,65.2,32.0,29.89,WSW,245,0.0,-999.0,29,-99.99,,,0.00,weatherlink.com 1.10,2013-05-18 05:08:00,
2013-05-17 22:23:00,64.8,31.0,29.87,East,91,5.0,-999.0,28,-99.99,,,0.00,weatherlink.com 1.10,2013-05-18 05:23:00,
2013-05-17 22:38:00,64.3,32.0,29.88,SSE,152,5.0,-999.0,30,-99.99,,,0.00,weatherlink.com 1.10,2013-05-18 05:38:00,
2013-05-17 22:53:00,64.7,32.0,29.89,South,182,0.0,-999.0,29,-99.99,,,0.00,weatherlink.com 1.10,2013-05-18 05:53:00,
2013-05-17 23:08:00,64.2,31.0,29.88,SSE,150,0.0,-999.0,29,-99.99,,,0.00,weatherlink.com 1.10,2013-05-18 06:08:00,
2013-05-17 23:23:00,63.9,32.0,29.87,NNE,17,3.0,-999.0,30,-99.99,,,0.00,weatherlink.com 1.10,2013-05-18 06:23:00,
2013-05-17 23:38:00,64.7,32.0,29.87,ENE,76,0.0,-999.0,30,-99.99,,,0.00,weatherlink.com 1.10,2013-05-18 06:38:00,
2013-05-17 23:53:00,63.7,33.0,29.87,ESE,111,5.0,-999.0,32,-99.99,,,0.00,weatherlink.com 1.10,2013-05-18 06:53:00,